sensor_id;sensor_type;location;lat;lon;timestamp;P1;durP1;ratioP1;P2;durP2;ratioP2
19788;SDS011;10054;59.332;18.244;2023-08-08T00:00:36;5.73;;;1.20;;
19788;SDS011;10054;59.332;18.244;2023-08-08T00:03:05;3.60;;;1.00;;
19788;SDS011;10054;59.332;18.244;2023-08-08T00:05:35;2.40;;;1.10;;
19788;SDS011;10054;59.332;18.244;2023-08-08T00:08:04;4.57;;;1.00;;
19788;SDS011;10054;59.332;18.244;2023-08-08T00:10:33;3.60;;;1.00;;
19788;SDS011;10054;59.332;18.244;2023-08-08T00:13:01;3.30;;;1.10;;
19788;SDS011;10054;59.332;18.244;2023-08-08T00:15:30;2.20;;;0.90;;
19788;SDS011;10054;59.332;18.244;2023-08-08T00:17:59;4.37;;;1.10;;
19788;SDS011;10054;59.332;18.244;2023-08-08T00:20:28;5.60;;;1.40;;
19788;SDS011;10054;59.332;18.244;2023-08-08T00:22:56;4.50;;;1.17;;
19788;SDS011;10054;59.332;18.244;2023-08-08T00:25:25;1.83;;;1.00;;
19788;SDS011;10054;59.332;18.244;2023-08-08T00:27:54;5.87;;;1.73;;
19788;SDS011;10054;59.332;18.244;2023-08-08T00:30:22;2.20;;;1.20;;
19788;SDS011;10054;59.332;18.244;2023-08-08T00:32:51;1.70;;;1.17;;
19788;SDS011;10054;59.332;18.244;2023-08-08T00:35:19;3.80;;;1.10;;
19788;SDS011;10054;59.332;18.244;2023-08-08T00:37:49;2.33;;;1.10;;
19788;SDS011;10054;59.332;18.244;2023-08-08T00:40:18;2.07;;;0.83;;
19788;SDS011;10054;59.332;18.244;2023-08-08T00:42:46;5.07;;;1.10;;
19788;SDS011;10054;59.332;18.244;2023-08-08T00:45:15;4.87;;;1.20;;
19788;SDS011;10054;59.332;18.244;2023-08-08T00:47:44;3.43;;;1.20;;
19788;SDS011;10054;59.332;18.244;2023-08-08T00:50:12;4.33;;;1.30;;
19788;SDS011;10054;59.332;18.244;2023-08-08T00:52:43;2.77;;;1.10;;
19788;SDS011;10054;59.332;18.244;2023-08-08T00:55:12;4.43;;;1.20;;
19788;SDS011;10054;59.332;18.244;2023-08-08T00:57:43;1.60;;;1.00;;
19788;SDS011;10054;59.332;18.244;2023-08-08T01:00:13;2.93;;;1.10;;
19788;SDS011;10054;59.332;18.244;2023-08-08T01:02:41;3.07;;;1.30;;
19788;SDS011;10054;59.332;18.244;2023-08-08T01:05:10;3.07;;;1.00;;
19788;SDS011;10054;59.332;18.244;2023-08-08T01:10:33;4.77;;;1.30;;
19788;SDS011;10054;59.332;18.244;2023-08-08T01:13:08;5.83;;;1.30;;
19788;SDS011;10054;59.332;18.244;2023-08-08T01:15:38;2.90;;;1.10;;
19788;SDS011;10054;59.332;18.244;2023-08-08T01:18:08;4.50;;;1.17;;
19788;SDS011;10054;59.332;18.244;2023-08-08T01:20:38;2.83;;;0.90;;
19788;SDS011;10054;59.332;18.244;2023-08-08T01:23:09;2.07;;;0.97;;
19788;SDS011;10054;59.332;18.244;2023-08-08T01:25:41;5.07;;;1.20;;
19788;SDS011;10054;59.332;18.244;2023-08-08T01:28:11;5.13;;;1.20;;
19788;SDS011;10054;59.332;18.244;2023-08-08T01:30:41;3.03;;;1.07;;
19788;SDS011;10054;59.332;18.244;2023-08-08T01:33:12;2.73;;;1.00;;
19788;SDS011;10054;59.332;18.244;2023-08-08T01:35:42;2.57;;;1.00;;
19788;SDS011;10054;59.332;18.244;2023-08-08T01:38:14;3.73;;;1.33;;
19788;SDS011;10054;59.332;18.244;2023-08-08T01:40:44;2.63;;;1.07;;
19788;SDS011;10054;59.332;18.244;2023-08-08T01:43:14;2.97;;;1.37;;
19788;SDS011;10054;59.332;18.244;2023-08-08T01:45:45;4.53;;;0.90;;
19788;SDS011;10054;59.332;18.244;2023-08-08T01:48:13;2.47;;;1.00;;
19788;SDS011;10054;59.332;18.244;2023-08-08T01:50:42;4.50;;;1.10;;
19788;SDS011;10054;59.332;18.244;2023-08-08T01:53:11;4.83;;;1.20;;
19788;SDS011;10054;59.332;18.244;2023-08-08T01:55:40;3.83;;;1.30;;
19788;SDS011;10054;59.332;18.244;2023-08-08T01:58:10;3.60;;;1.10;;
19788;SDS011;10054;59.332;18.244;2023-08-08T02:00:38;4.43;;;1.30;;
19788;SDS011;10054;59.332;18.244;2023-08-08T02:03:08;1.73;;;0.93;;
19788;SDS011;10054;59.332;18.244;2023-08-08T02:05:37;2.17;;;1.10;;
19788;SDS011;10054;59.332;18.244;2023-08-08T02:08:08;5.70;;;1.50;;
19788;SDS011;10054;59.332;18.244;2023-08-08T02:10:36;3.73;;;1.27;;
19788;SDS011;10054;59.332;18.244;2023-08-08T02:13:05;3.50;;;1.00;;
19788;SDS011;10054;59.332;18.244;2023-08-08T02:15:34;4.77;;;1.10;;
19788;SDS011;10054;59.332;18.244;2023-08-08T02:18:02;3.23;;;1.07;;
19788;SDS011;10054;59.332;18.244;2023-08-08T02:20:32;4.57;;;1.03;;
19788;SDS011;10054;59.332;18.244;2023-08-08T02:23:00;1.97;;;1.10;;
19788;SDS011;10054;59.332;18.244;2023-08-08T02:25:29;2.47;;;1.20;;
19788;SDS011;10054;59.332;18.244;2023-08-08T02:27:58;3.70;;;1.13;;
19788;SDS011;10054;59.332;18.244;2023-08-08T02:30:27;2.00;;;1.20;;
19788;SDS011;10054;59.332;18.244;2023-08-08T02:32:55;4.20;;;1.20;;
19788;SDS011;10054;59.332;18.244;2023-08-08T02:35:26;5.67;;;1.20;;
19788;SDS011;10054;59.332;18.244;2023-08-08T02:37:56;3.60;;;1.30;;
19788;SDS011;10054;59.332;18.244;2023-08-08T02:40:24;2.93;;;1.00;;
19788;SDS011;10054;59.332;18.244;2023-08-08T02:42:53;4.83;;;1.70;;
19788;SDS011;10054;59.332;18.244;2023-08-08T02:45:23;5.97;;;1.40;;
19788;SDS011;10054;59.332;18.244;2023-08-08T02:47:52;5.17;;;1.10;;
19788;SDS011;10054;59.332;18.244;2023-08-08T02:50:20;2.87;;;1.07;;
19788;SDS011;10054;59.332;18.244;2023-08-08T02:52:51;2.93;;;1.20;;
19788;SDS011;10054;59.332;18.244;2023-08-08T02:55:21;4.90;;;1.30;;
19788;SDS011;10054;59.332;18.244;2023-08-08T02:57:50;2.33;;;1.00;;
19788;SDS011;10054;59.332;18.244;2023-08-08T03:00:19;2.40;;;0.90;;
19788;SDS011;10054;59.332;18.244;2023-08-08T03:02:49;2.50;;;0.90;;
19788;SDS011;10054;59.332;18.244;2023-08-08T03:05:19;1.63;;;0.90;;
19788;SDS011;10054;59.332;18.244;2023-08-08T03:07:48;3.20;;;1.20;;
19788;SDS011;10054;59.332;18.244;2023-08-08T03:10:17;2.80;;;1.07;;
19788;SDS011;10054;59.332;18.244;2023-08-08T03:12:47;5.27;;;1.10;;
19788;SDS011;10054;59.332;18.244;2023-08-08T03:15:16;4.57;;;1.00;;
19788;SDS011;10054;59.332;18.244;2023-08-08T03:17:45;3.87;;;1.20;;
19788;SDS011;10054;59.332;18.244;2023-08-08T03:20:15;3.27;;;1.10;;
19788;SDS011;10054;59.332;18.244;2023-08-08T03:22:43;2.80;;;1.00;;
19788;SDS011;10054;59.332;18.244;2023-08-08T03:25:12;3.23;;;1.20;;
19788;SDS011;10054;59.332;18.244;2023-08-08T03:27:41;3.83;;;1.07;;
19788;SDS011;10054;59.332;18.244;2023-08-08T03:30:12;3.73;;;0.90;;
19788;SDS011;10054;59.332;18.244;2023-08-08T03:32:42;3.43;;;1.17;;
19788;SDS011;10054;59.332;18.244;2023-08-08T03:35:10;2.53;;;1.13;;
19788;SDS011;10054;59.332;18.244;2023-08-08T03:37:41;6.40;;;1.30;;
19788;SDS011;10054;59.332;18.244;2023-08-08T03:40:11;2.00;;;1.13;;
19788;SDS011;10054;59.332;18.244;2023-08-08T03:42:42;2.50;;;1.00;;
19788;SDS011;10054;59.332;18.244;2023-08-08T03:45:11;1.40;;;0.90;;
19788;SDS011;10054;59.332;18.244;2023-08-08T03:47:40;2.93;;;1.33;;
19788;SDS011;10054;59.332;18.244;2023-08-08T03:50:08;2.63;;;0.93;;
19788;SDS011;10054;59.332;18.244;2023-08-08T03:52:37;3.03;;;1.10;;
19788;SDS011;10054;59.332;18.244;2023-08-08T03:55:08;1.57;;;0.90;;
19788;SDS011;10054;59.332;18.244;2023-08-08T03:57:37;2.97;;;1.27;;
19788;SDS011;10054;59.332;18.244;2023-08-08T04:00:06;2.70;;;0.97;;
19788;SDS011;10054;59.332;18.244;2023-08-08T04:02:38;2.30;;;0.90;;
19788;SDS011;10054;59.332;18.244;2023-08-08T04:05:07;3.00;;;1.10;;
19788;SDS011;10054;59.332;18.244;2023-08-08T04:07:36;2.43;;;1.20;;
19788;SDS011;10054;59.332;18.244;2023-08-08T04:10:05;2.77;;;1.17;;
19788;SDS011;10054;59.332;18.244;2023-08-08T04:12:34;2.20;;;0.87;;
19788;SDS011;10054;59.332;18.244;2023-08-08T04:15:03;2.50;;;1.03;;
19788;SDS011;10054;59.332;18.244;2023-08-08T04:17:31;3.53;;;1.20;;
19788;SDS011;10054;59.332;18.244;2023-08-08T04:20:00;1.27;;;0.90;;
19788;SDS011;10054;59.332;18.244;2023-08-08T04:22:29;3.53;;;0.80;;
19788;SDS011;10054;59.332;18.244;2023-08-08T04:24:58;2.40;;;0.80;;
19788;SDS011;10054;59.332;18.244;2023-08-08T04:27:26;3.90;;;0.80;;
19788;SDS011;10054;59.332;18.244;2023-08-08T04:29:55;3.00;;;0.93;;
19788;SDS011;10054;59.332;18.244;2023-08-08T04:32:24;2.00;;;0.80;;
19788;SDS011;10054;59.332;18.244;2023-08-08T04:34:52;2.63;;;0.80;;
19788;SDS011;10054;59.332;18.244;2023-08-08T04:37:21;2.37;;;0.87;;
19788;SDS011;10054;59.332;18.244;2023-08-08T04:39:50;1.20;;;0.87;;
19788;SDS011;10054;59.332;18.244;2023-08-08T04:42:18;2.93;;;0.87;;
19788;SDS011;10054;59.332;18.244;2023-08-08T04:44:47;2.63;;;0.93;;
19788;SDS011;10054;59.332;18.244;2023-08-08T04:47:16;1.97;;;1.00;;
19788;SDS011;10054;59.332;18.244;2023-08-08T04:49:45;2.57;;;0.70;;
19788;SDS011;10054;59.332;18.244;2023-08-08T04:52:14;1.80;;;0.70;;
19788;SDS011;10054;59.332;18.244;2023-08-08T04:54:42;1.03;;;0.83;;
19788;SDS011;10054;59.332;18.244;2023-08-08T04:57:11;1.47;;;0.80;;
19788;SDS011;10054;59.332;18.244;2023-08-08T04:59:39;2.20;;;0.90;;
19788;SDS011;10054;59.332;18.244;2023-08-08T05:02:09;2.07;;;0.70;;
19788;SDS011;10054;59.332;18.244;2023-08-08T05:04:39;2.73;;;0.90;;
19788;SDS011;10054;59.332;18.244;2023-08-08T05:07:09;2.70;;;0.90;;
19788;SDS011;10054;59.332;18.244;2023-08-08T05:09:37;1.73;;;0.77;;
19788;SDS011;10054;59.332;18.244;2023-08-08T05:12:07;1.50;;;0.93;;
19788;SDS011;10054;59.332;18.244;2023-08-08T05:14:36;2.13;;;0.90;;
19788;SDS011;10054;59.332;18.244;2023-08-08T05:17:05;3.40;;;0.90;;
19788;SDS011;10054;59.332;18.244;2023-08-08T05:19:34;3.50;;;0.70;;
19788;SDS011;10054;59.332;18.244;2023-08-08T05:22:04;1.03;;;0.73;;
19788;SDS011;10054;59.332;18.244;2023-08-08T05:24:33;2.03;;;0.70;;
19788;SDS011;10054;59.332;18.244;2023-08-08T05:27:02;1.20;;;0.70;;
19788;SDS011;10054;59.332;18.244;2023-08-08T05:29:31;1.53;;;0.80;;
19788;SDS011;10054;59.332;18.244;2023-08-08T05:31:59;0.70;;;0.70;;
19788;SDS011;10054;59.332;18.244;2023-08-08T05:34:31;2.77;;;0.60;;
19788;SDS011;10054;59.332;18.244;2023-08-08T05:37:02;0.90;;;0.67;;
19788;SDS011;10054;59.332;18.244;2023-08-08T05:39:31;2.33;;;0.70;;
19788;SDS011;10054;59.332;18.244;2023-08-08T05:42:00;1.17;;;0.70;;
19788;SDS011;10054;59.332;18.244;2023-08-08T05:44:28;0.60;;;0.60;;
19788;SDS011;10054;59.332;18.244;2023-08-08T05:46:57;0.60;;;0.60;;
19788;SDS011;10054;59.332;18.244;2023-08-08T05:49:26;1.80;;;0.67;;
19788;SDS011;10054;59.332;18.244;2023-08-08T05:51:54;0.87;;;0.60;;
19788;SDS011;10054;59.332;18.244;2023-08-08T05:54:23;0.87;;;0.70;;
19788;SDS011;10054;59.332;18.244;2023-08-08T05:56:52;2.37;;;0.70;;
19788;SDS011;10054;59.332;18.244;2023-08-08T05:59:22;1.67;;;0.70;;
19788;SDS011;10054;59.332;18.244;2023-08-08T06:01:50;1.87;;;0.83;;
19788;SDS011;10054;59.332;18.244;2023-08-08T06:04:19;0.60;;;0.60;;
19788;SDS011;10054;59.332;18.244;2023-08-08T06:06:48;4.00;;;0.77;;
19788;SDS011;10054;59.332;18.244;2023-08-08T06:09:17;4.27;;;0.80;;
19788;SDS011;10054;59.332;18.244;2023-08-08T06:11:47;2.60;;;0.70;;
19788;SDS011;10054;59.332;18.244;2023-08-08T06:14:16;1.87;;;0.80;;
19788;SDS011;10054;59.332;18.244;2023-08-08T06:16:46;3.30;;;0.70;;
19788;SDS011;10054;59.332;18.244;2023-08-08T06:19:15;3.40;;;0.80;;
19788;SDS011;10054;59.332;18.244;2023-08-08T06:21:46;2.13;;;1.00;;
19788;SDS011;10054;59.332;18.244;2023-08-08T06:24:15;1.90;;;0.97;;
19788;SDS011;10054;59.332;18.244;2023-08-08T06:26:44;1.40;;;0.80;;
19788;SDS011;10054;59.332;18.244;2023-08-08T06:29:13;1.40;;;0.90;;
19788;SDS011;10054;59.332;18.244;2023-08-08T06:31:47;1.23;;;0.80;;
19788;SDS011;10054;59.332;18.244;2023-08-08T06:34:11;0.80;;;0.70;;
19788;SDS011;10054;59.332;18.244;2023-08-08T06:36:40;0.80;;;0.80;;
19788;SDS011;10054;59.332;18.244;2023-08-08T06:39:09;1.57;;;0.73;;
19788;SDS011;10054;59.332;18.244;2023-08-08T06:41:38;0.63;;;0.60;;
19788;SDS011;10054;59.332;18.244;2023-08-08T06:44:06;2.00;;;0.90;;
19788;SDS011;10054;59.332;18.244;2023-08-08T06:46:36;0.77;;;0.60;;
19788;SDS011;10054;59.332;18.244;2023-08-08T06:49:05;1.10;;;0.70;;
19788;SDS011;10054;59.332;18.244;2023-08-08T06:51:35;2.80;;;0.97;;
19788;SDS011;10054;59.332;18.244;2023-08-08T06:54:03;1.13;;;0.87;;
19788;SDS011;10054;59.332;18.244;2023-08-08T06:56:32;2.30;;;0.67;;
19788;SDS011;10054;59.332;18.244;2023-08-08T06:59:01;1.50;;;0.83;;
19788;SDS011;10054;59.332;18.244;2023-08-08T07:01:30;1.67;;;0.87;;
19788;SDS011;10054;59.332;18.244;2023-08-08T07:03:58;1.27;;;0.80;;
19788;SDS011;10054;59.332;18.244;2023-08-08T07:06:27;0.77;;;0.70;;
19788;SDS011;10054;59.332;18.244;2023-08-08T07:08:56;1.20;;;0.70;;
19788;SDS011;10054;59.332;18.244;2023-08-08T07:11:24;1.13;;;0.80;;
19788;SDS011;10054;59.332;18.244;2023-08-08T07:13:54;0.73;;;0.73;;
19788;SDS011;10054;59.332;18.244;2023-08-08T07:16:24;1.73;;;0.80;;
19788;SDS011;10054;59.332;18.244;2023-08-08T07:18:52;0.70;;;0.70;;
19788;SDS011;10054;59.332;18.244;2023-08-08T07:21:21;1.63;;;0.90;;
19788;SDS011;10054;59.332;18.244;2023-08-08T07:23:50;1.10;;;1.00;;
19788;SDS011;10054;59.332;18.244;2023-08-08T07:26:18;4.60;;;1.10;;
19788;SDS011;10054;59.332;18.244;2023-08-08T07:28:48;2.90;;;1.10;;
19788;SDS011;10054;59.332;18.244;2023-08-08T07:31:17;1.80;;;1.10;;
19788;SDS011;10054;59.332;18.244;2023-08-08T07:33:45;3.23;;;1.40;;
19788;SDS011;10054;59.332;18.244;2023-08-08T07:36:14;1.47;;;1.23;;
19788;SDS011;10054;59.332;18.244;2023-08-08T07:38:43;2.47;;;1.30;;
19788;SDS011;10054;59.332;18.244;2023-08-08T07:41:11;1.20;;;1.20;;
19788;SDS011;10054;59.332;18.244;2023-08-08T07:43:40;1.90;;;1.30;;
19788;SDS011;10054;59.332;18.244;2023-08-08T07:46:08;1.57;;;1.10;;
19788;SDS011;10054;59.332;18.244;2023-08-08T07:48:39;1.33;;;1.10;;
19788;SDS011;10054;59.332;18.244;2023-08-08T07:51:07;3.30;;;1.20;;
19788;SDS011;10054;59.332;18.244;2023-08-08T07:53:35;1.50;;;1.17;;
19788;SDS011;10054;59.332;18.244;2023-08-08T07:56:04;1.77;;;1.10;;
19788;SDS011;10054;59.332;18.244;2023-08-08T07:58:32;1.90;;;1.10;;
19788;SDS011;10054;59.332;18.244;2023-08-08T08:01:01;1.33;;;1.20;;
19788;SDS011;10054;59.332;18.244;2023-08-08T08:03:30;2.07;;;1.40;;
19788;SDS011;10054;59.332;18.244;2023-08-08T08:05:59;2.33;;;1.43;;
19788;SDS011;10054;59.332;18.244;2023-08-08T08:08:27;1.43;;;1.20;;
19788;SDS011;10054;59.332;18.244;2023-08-08T08:10:56;1.00;;;1.00;;
19788;SDS011;10054;59.332;18.244;2023-08-08T08:13:24;1.60;;;1.40;;
19788;SDS011;10054;59.332;18.244;2023-08-08T08:15:53;1.90;;;1.20;;
19788;SDS011;10054;59.332;18.244;2023-08-08T08:18:22;2.00;;;1.47;;
19788;SDS011;10054;59.332;18.244;2023-08-08T08:20:50;1.30;;;1.20;;
19788;SDS011;10054;59.332;18.244;2023-08-08T08:23:19;2.93;;;1.30;;
19788;SDS011;10054;59.332;18.244;2023-08-08T08:25:47;1.67;;;1.20;;
19788;SDS011;10054;59.332;18.244;2023-08-08T08:28:17;2.27;;;1.10;;
19788;SDS011;10054;59.332;18.244;2023-08-08T08:30:47;2.90;;;1.20;;
19788;SDS011;10054;59.332;18.244;2023-08-08T08:33:16;1.83;;;1.37;;
19788;SDS011;10054;59.332;18.244;2023-08-08T08:35:44;3.13;;;1.37;;
19788;SDS011;10054;59.332;18.244;2023-08-08T08:38:13;1.20;;;1.10;;
19788;SDS011;10054;59.332;18.244;2023-08-08T08:40:42;1.80;;;1.10;;
19788;SDS011;10054;59.332;18.244;2023-08-08T08:43:13;1.10;;;1.00;;
19788;SDS011;10054;59.332;18.244;2023-08-08T08:45:45;0.87;;;0.70;;
19788;SDS011;10054;59.332;18.244;2023-08-08T08:48:15;1.70;;;0.80;;
19788;SDS011;10054;59.332;18.244;2023-08-08T08:50:46;0.83;;;0.83;;
19788;SDS011;10054;59.332;18.244;2023-08-08T08:53:16;1.00;;;0.90;;
19788;SDS011;10054;59.332;18.244;2023-08-08T08:55:45;0.60;;;0.60;;
19788;SDS011;10054;59.332;18.244;2023-08-08T08:58:15;0.97;;;0.60;;
19788;SDS011;10054;59.332;18.244;2023-08-08T09:00:45;0.70;;;0.70;;
19788;SDS011;10054;59.332;18.244;2023-08-08T09:03:15;0.80;;;0.80;;
19788;SDS011;10054;59.332;18.244;2023-08-08T09:05:44;0.60;;;0.60;;
19788;SDS011;10054;59.332;18.244;2023-08-08T09:08:14;0.60;;;0.60;;
19788;SDS011;10054;59.332;18.244;2023-08-08T09:10:45;0.60;;;0.60;;
19788;SDS011;10054;59.332;18.244;2023-08-08T09:13:14;0.70;;;0.70;;
19788;SDS011;10054;59.332;18.244;2023-08-08T09:15:42;1.93;;;0.87;;
19788;SDS011;10054;59.332;18.244;2023-08-08T09:18:12;0.80;;;0.80;;
19788;SDS011;10054;59.332;18.244;2023-08-08T09:20:41;1.00;;;1.00;;
19788;SDS011;10054;59.332;18.244;2023-08-08T09:23:17;0.80;;;0.80;;
19788;SDS011;10054;59.332;18.244;2023-08-08T09:25:47;0.90;;;0.90;;
19788;SDS011;10054;59.332;18.244;2023-08-08T09:28:16;1.10;;;1.10;;
19788;SDS011;10054;59.332;18.244;2023-08-08T09:30:45;1.20;;;1.20;;
19788;SDS011;10054;59.332;18.244;2023-08-08T09:33:14;1.17;;;1.17;;
19788;SDS011;10054;59.332;18.244;2023-08-08T09:35:42;1.27;;;1.17;;
19788;SDS011;10054;59.332;18.244;2023-08-08T09:38:11;1.10;;;1.10;;
19788;SDS011;10054;59.332;18.244;2023-08-08T09:40:40;1.23;;;1.00;;
19788;SDS011;10054;59.332;18.244;2023-08-08T09:43:11;1.43;;;1.33;;
19788;SDS011;10054;59.332;18.244;2023-08-08T09:45:39;1.80;;;1.70;;
19788;SDS011;10054;59.332;18.244;2023-08-08T09:48:11;1.57;;;1.20;;
19788;SDS011;10054;59.332;18.244;2023-08-08T09:50:39;1.63;;;1.40;;
19788;SDS011;10054;59.332;18.244;2023-08-08T09:53:09;1.90;;;1.50;;
19788;SDS011;10054;59.332;18.244;2023-08-08T09:55:40;1.60;;;1.50;;
19788;SDS011;10054;59.332;18.244;2023-08-08T09:58:09;1.70;;;1.37;;
19788;SDS011;10054;59.332;18.244;2023-08-08T10:00:38;1.60;;;1.30;;
19788;SDS011;10054;59.332;18.244;2023-08-08T10:03:07;2.97;;;1.30;;
19788;SDS011;10054;59.332;18.244;2023-08-08T10:09:01;1.03;;;1.00;;
19788;SDS011;10054;59.332;18.244;2023-08-08T10:11:31;1.10;;;1.00;;
19788;SDS011;10054;59.332;18.244;2023-08-08T10:14:01;1.03;;;1.00;;
19788;SDS011;10054;59.332;18.244;2023-08-08T10:16:34;1.10;;;0.93;;
19788;SDS011;10054;59.332;18.244;2023-08-08T10:19:04;1.27;;;1.00;;
19788;SDS011;10054;59.332;18.244;2023-08-08T10:21:37;0.93;;;0.93;;
19788;SDS011;10054;59.332;18.244;2023-08-08T10:24:08;1.43;;;0.70;;
19788;SDS011;10054;59.332;18.244;2023-08-08T10:26:56;0.67;;;0.67;;
19788;SDS011;10054;59.332;18.244;2023-08-08T10:29:28;0.70;;;0.70;;
19788;SDS011;10054;59.332;18.244;2023-08-08T10:31:59;0.73;;;0.73;;
19788;SDS011;10054;59.332;18.244;2023-08-08T10:34:40;1.87;;;0.90;;
19788;SDS011;10054;59.332;18.244;2023-08-08T10:37:16;0.90;;;0.87;;
19788;SDS011;10054;59.332;18.244;2023-08-08T10:39:53;1.10;;;1.00;;
19788;SDS011;10054;59.332;18.244;2023-08-08T10:42:29;2.10;;;0.73;;
19788;SDS011;10054;59.332;18.244;2023-08-08T10:44:59;3.23;;;0.97;;
19788;SDS011;10054;59.332;18.244;2023-08-08T10:47:38;1.60;;;0.80;;
19788;SDS011;10054;59.332;18.244;2023-08-08T10:50:07;2.00;;;0.90;;
19788;SDS011;10054;59.332;18.244;2023-08-08T10:52:50;1.03;;;0.80;;
19788;SDS011;10054;59.332;18.244;2023-08-08T10:55:34;0.80;;;0.80;;
19788;SDS011;10054;59.332;18.244;2023-08-08T10:58:06;2.53;;;0.90;;
19788;SDS011;10054;59.332;18.244;2023-08-08T11:00:37;1.57;;;0.70;;
19788;SDS011;10054;59.332;18.244;2023-08-08T11:03:07;1.07;;;0.90;;
19788;SDS011;10054;59.332;18.244;2023-08-08T11:05:36;0.97;;;0.80;;
19788;SDS011;10054;59.332;18.244;2023-08-08T11:08:06;3.37;;;0.80;;
19788;SDS011;10054;59.332;18.244;2023-08-08T11:10:36;3.03;;;0.90;;
19788;SDS011;10054;59.332;18.244;2023-08-08T11:13:06;1.20;;;0.80;;
19788;SDS011;10054;59.332;18.244;2023-08-08T11:15:37;1.13;;;0.80;;
19788;SDS011;10054;59.332;18.244;2023-08-08T11:18:06;1.33;;;0.90;;
19788;SDS011;10054;59.332;18.244;2023-08-08T11:20:36;1.77;;;1.10;;
19788;SDS011;10054;59.332;18.244;2023-08-08T11:23:05;1.70;;;1.20;;
19788;SDS011;10054;59.332;18.244;2023-08-08T11:25:39;1.40;;;1.00;;
19788;SDS011;10054;59.332;18.244;2023-08-08T11:28:07;1.47;;;0.70;;
19788;SDS011;10054;59.332;18.244;2023-08-08T11:30:38;2.10;;;1.00;;
19788;SDS011;10054;59.332;18.244;2023-08-08T11:33:12;1.57;;;1.00;;
19788;SDS011;10054;59.332;18.244;2023-08-08T11:35:45;1.40;;;0.90;;
19788;SDS011;10054;59.332;18.244;2023-08-08T11:38:15;1.50;;;0.73;;
19788;SDS011;10054;59.332;18.244;2023-08-08T11:40:45;2.77;;;0.97;;
19788;SDS011;10054;59.332;18.244;2023-08-08T11:43:13;2.10;;;0.93;;
19788;SDS011;10054;59.332;18.244;2023-08-08T11:45:42;1.13;;;0.80;;
19788;SDS011;10054;59.332;18.244;2023-08-08T11:48:11;3.13;;;0.90;;
19788;SDS011;10054;59.332;18.244;2023-08-08T11:50:41;1.30;;;0.90;;
19788;SDS011;10054;59.332;18.244;2023-08-08T11:53:11;4.00;;;0.83;;
19788;SDS011;10054;59.332;18.244;2023-08-08T11:55:39;3.10;;;0.80;;
19788;SDS011;10054;59.332;18.244;2023-08-08T11:58:12;1.83;;;0.80;;
19788;SDS011;10054;59.332;18.244;2023-08-08T12:00:43;2.40;;;0.90;;
19788;SDS011;10054;59.332;18.244;2023-08-08T12:03:15;1.47;;;0.77;;
19788;SDS011;10054;59.332;18.244;2023-08-08T12:05:48;4.20;;;1.10;;
19788;SDS011;10054;59.332;18.244;2023-08-08T12:08:17;1.90;;;0.90;;
19788;SDS011;10054;59.332;18.244;2023-08-08T12:10:47;1.80;;;1.00;;
19788;SDS011;10054;59.332;18.244;2023-08-08T12:13:26;1.00;;;0.80;;
19788;SDS011;10054;59.332;18.244;2023-08-08T12:15:55;2.07;;;0.80;;
19788;SDS011;10054;59.332;18.244;2023-08-08T12:18:25;2.23;;;1.00;;
19788;SDS011;10054;59.332;18.244;2023-08-08T12:20:54;1.20;;;1.10;;
19788;SDS011;10054;59.332;18.244;2023-08-08T12:23:22;2.93;;;1.00;;
19788;SDS011;10054;59.332;18.244;2023-08-08T12:25:56;1.93;;;0.80;;
19788;SDS011;10054;59.332;18.244;2023-08-08T12:28:25;2.40;;;0.80;;
19788;SDS011;10054;59.332;18.244;2023-08-08T12:30:54;2.23;;;0.90;;
19788;SDS011;10054;59.332;18.244;2023-08-08T12:33:23;1.03;;;0.90;;
19788;SDS011;10054;59.332;18.244;2023-08-08T12:35:52;1.47;;;1.00;;
19788;SDS011;10054;59.332;18.244;2023-08-08T12:38:21;2.60;;;0.90;;
19788;SDS011;10054;59.332;18.244;2023-08-08T12:40:53;2.37;;;1.00;;
19788;SDS011;10054;59.332;18.244;2023-08-08T12:43:22;2.03;;;0.80;;
19788;SDS011;10054;59.332;18.244;2023-08-08T12:45:51;1.43;;;0.90;;
19788;SDS011;10054;59.332;18.244;2023-08-08T12:48:20;1.47;;;0.83;;
19788;SDS011;10054;59.332;18.244;2023-08-08T12:50:48;2.33;;;0.90;;
19788;SDS011;10054;59.332;18.244;2023-08-08T12:53:19;3.47;;;0.97;;
19788;SDS011;10054;59.332;18.244;2023-08-08T12:59:29;2.90;;;1.23;;
19788;SDS011;10054;59.332;18.244;2023-08-08T13:02:00;2.23;;;0.90;;
19788;SDS011;10054;59.332;18.244;2023-08-08T13:04:28;1.57;;;0.90;;
19788;SDS011;10054;59.332;18.244;2023-08-08T13:06:57;3.00;;;1.10;;
19788;SDS011;10054;59.332;18.244;2023-08-08T13:09:25;1.43;;;1.20;;
19788;SDS011;10054;59.332;18.244;2023-08-08T13:11:56;3.83;;;1.10;;
19788;SDS011;10054;59.332;18.244;2023-08-08T13:14:24;1.13;;;0.90;;
19788;SDS011;10054;59.332;18.244;2023-08-08T13:16:54;1.53;;;0.93;;
19788;SDS011;10054;59.332;18.244;2023-08-08T13:19:23;1.70;;;1.10;;
19788;SDS011;10054;59.332;18.244;2023-08-08T13:21:56;5.97;;;1.10;;
19788;SDS011;10054;59.332;18.244;2023-08-08T13:24:26;2.73;;;1.00;;
19788;SDS011;10054;59.332;18.244;2023-08-08T13:26:56;3.33;;;1.50;;
19788;SDS011;10054;59.332;18.244;2023-08-08T13:29:24;3.03;;;1.33;;
19788;SDS011;10054;59.332;18.244;2023-08-08T13:31:54;1.90;;;1.10;;
19788;SDS011;10054;59.332;18.244;2023-08-08T13:34:22;2.07;;;1.20;;
19788;SDS011;10054;59.332;18.244;2023-08-08T13:36:51;4.20;;;1.43;;
19788;SDS011;10054;59.332;18.244;2023-08-08T13:39:19;2.70;;;1.03;;
19788;SDS011;10054;59.332;18.244;2023-08-08T13:41:48;5.57;;;1.43;;
19788;SDS011;10054;59.332;18.244;2023-08-08T13:44:16;2.13;;;1.23;;
19788;SDS011;10054;59.332;18.244;2023-08-08T13:46:47;3.53;;;1.33;;
19788;SDS011;10054;59.332;18.244;2023-08-08T13:49:15;2.77;;;1.10;;
19788;SDS011;10054;59.332;18.244;2023-08-08T13:51:44;1.90;;;1.00;;
19788;SDS011;10054;59.332;18.244;2023-08-08T13:54:13;2.00;;;0.97;;
19788;SDS011;10054;59.332;18.244;2023-08-08T13:56:41;4.10;;;1.30;;
19788;SDS011;10054;59.332;18.244;2023-08-08T13:59:10;2.80;;;1.17;;
19788;SDS011;10054;59.332;18.244;2023-08-08T14:01:39;2.13;;;0.90;;
19788;SDS011;10054;59.332;18.244;2023-08-08T14:04:09;4.67;;;1.20;;
19788;SDS011;10054;59.332;18.244;2023-08-08T14:06:38;2.50;;;1.20;;
19788;SDS011;10054;59.332;18.244;2023-08-08T14:09:07;2.00;;;0.83;;
19788;SDS011;10054;59.332;18.244;2023-08-08T14:11:35;1.50;;;1.00;;
19788;SDS011;10054;59.332;18.244;2023-08-08T14:14:04;2.40;;;0.80;;
19788;SDS011;10054;59.332;18.244;2023-08-08T14:16:32;1.83;;;0.80;;
19788;SDS011;10054;59.332;18.244;2023-08-08T14:19:01;2.97;;;0.97;;
19788;SDS011;10054;59.332;18.244;2023-08-08T14:21:30;1.77;;;0.80;;
19788;SDS011;10054;59.332;18.244;2023-08-08T14:23:58;3.73;;;1.10;;
19788;SDS011;10054;59.332;18.244;2023-08-08T14:26:28;2.83;;;1.30;;
19788;SDS011;10054;59.332;18.244;2023-08-08T14:28:56;3.00;;;1.00;;
19788;SDS011;10054;59.332;18.244;2023-08-08T14:31:25;4.73;;;1.13;;
19788;SDS011;10054;59.332;18.244;2023-08-08T14:33:54;3.27;;;0.97;;
19788;SDS011;10054;59.332;18.244;2023-08-08T14:36:22;2.30;;;1.00;;
19788;SDS011;10054;59.332;18.244;2023-08-08T14:38:51;3.87;;;1.00;;
19788;SDS011;10054;59.332;18.244;2023-08-08T14:41:19;2.73;;;1.10;;
19788;SDS011;10054;59.332;18.244;2023-08-08T14:43:48;2.30;;;1.10;;
19788;SDS011;10054;59.332;18.244;2023-08-08T14:46:17;1.83;;;1.00;;
19788;SDS011;10054;59.332;18.244;2023-08-08T14:48:45;2.23;;;1.00;;
19788;SDS011;10054;59.332;18.244;2023-08-08T14:51:14;3.57;;;1.20;;
19788;SDS011;10054;59.332;18.244;2023-08-08T14:53:46;5.93;;;1.53;;
19788;SDS011;10054;59.332;18.244;2023-08-08T14:56:14;4.53;;;0.90;;